createdAt,value
2016-12-06T00:00:58.665Z,1022.78
2016-12-06T00:02:07.533Z,1022.8
2016-12-06T00:03:16.393Z,1022.77
2016-12-06T00:04:25.236Z,1022.84
2016-12-06T00:05:34.110Z,1022.86
2016-12-06T00:06:42.957Z,1022.92
2016-12-06T00:07:51.803Z,1022.88
2016-12-06T00:09:00.651Z,1022.85
2016-12-06T00:10:09.514Z,1022.81
2016-12-06T00:11:18.371Z,1022.86
2016-12-06T00:12:27.227Z,1022.88
2016-12-06T00:13:36.051Z,1022.86
2016-12-06T00:14:44.924Z,1022.85
2016-12-06T00:15:53.778Z,1022.89
2016-12-06T00:17:02.617Z,1022.91
2016-12-06T00:18:11.480Z,1022.92
2016-12-06T00:19:20.372Z,1022.95
2016-12-06T00:20:29.207Z,1022.99
2016-12-06T00:21:38.065Z,1022.98
2016-12-06T00:22:46.924Z,1022.94
2016-12-06T00:23:55.776Z,1022.94
2016-12-06T00:25:04.622Z,1022.92
2016-12-06T00:26:13.498Z,1022.88
2016-12-06T00:27:22.332Z,1022.82
2016-12-06T00:28:31.170Z,1022.86
2016-12-06T00:29:40.370Z,1022.88
2016-12-06T00:30:49.231Z,1022.89
2016-12-06T00:31:58.080Z,1022.88
2016-12-06T00:33:06.943Z,1022.89
2016-12-06T00:34:15.881Z,1022.9
2016-12-06T00:35:24.715Z,1022.88
2016-12-06T00:36:33.591Z,1022.94
2016-12-06T00:37:42.466Z,1022.93
2016-12-06T00:38:51.328Z,1022.95
2016-12-06T00:40:00.184Z,1022.97
2016-12-06T00:41:09.046Z,1022.99
2016-12-06T00:42:17.913Z,1023.01
2016-12-06T00:43:26.772Z,1023.01
2016-12-06T00:44:35.619Z,1022.94
2016-12-06T00:45:44.487Z,1022.94
2016-12-06T00:46:53.655Z,1022.94
2016-12-06T00:48:02.536Z,1022.94
2016-12-06T00:49:11.384Z,1022.96
2016-12-06T00:50:20.243Z,1022.96
2016-12-06T00:51:29.092Z,1022.94
2016-12-06T00:52:37.948Z,1022.93
2016-12-06T00:53:46.790Z,1022.99
2016-12-06T00:54:55.675Z,1022.93
2016-12-06T00:56:04.537Z,1023.01
2016-12-06T00:57:13.378Z,1022.96
2016-12-06T00:58:22.230Z,1023.01
2016-12-06T00:59:31.102Z,1023.01
2016-12-06T01:00:39.936Z,1023
2016-12-06T01:01:48.797Z,1023.01
2016-12-06T01:02:57.674Z,1023.01
2016-12-06T01:04:06.542Z,1022.99
2016-12-06T01:05:15.392Z,1022.99
2016-12-06T01:06:24.253Z,1022.98
2016-12-06T01:07:33.117Z,1022.97
2016-12-06T01:08:41.991Z,1022.97
2016-12-06T01:09:50.830Z,1022.99
2016-12-06T01:10:59.677Z,1023.02
2016-12-06T01:12:08.548Z,1023.04
2016-12-06T01:13:17.707Z,1023.05
2016-12-06T01:14:26.559Z,1023.04
2016-12-06T01:15:35.425Z,1023.16
2016-12-06T01:16:44.276Z,1023.13
2016-12-06T01:17:53.108Z,1023.18
2016-12-06T01:19:01.974Z,1023.21
2016-12-06T01:20:10.841Z,1023.22
2016-12-06T01:21:19.689Z,1023.23
2016-12-06T01:22:28.529Z,1023.22
2016-12-06T01:23:37.377Z,1023.17
2016-12-06T01:24:46.251Z,1023.18
2016-12-06T01:25:55.101Z,1023.15
2016-12-06T01:27:03.933Z,1023.15
2016-12-06T01:28:12.803Z,1023.12
2016-12-06T01:29:21.657Z,1023.09
2016-12-06T01:30:30.499Z,1023.09
2016-12-06T01:31:39.361Z,1023.1
2016-12-06T01:32:48.233Z,1023.1
2016-12-06T01:33:57.068Z,1023.04
2016-12-06T01:35:05.920Z,1023.05
2016-12-06T01:36:14.782Z,1023.02
2016-12-06T01:37:23.649Z,1023.06
2016-12-06T01:38:32.505Z,1023.05
2016-12-06T01:39:41.353Z,1023.02
2016-12-06T01:40:50.218Z,1023.05
2016-12-06T01:41:59.083Z,1023.07
2016-12-06T01:43:07.915Z,1023.11
2016-12-06T01:44:16.780Z,1023.11
2016-12-06T01:45:25.637Z,1023.11
2016-12-06T01:46:34.481Z,1023.1
2016-12-06T01:47:43.319Z,1023.13
2016-12-06T01:48:52.193Z,1023.14
2016-12-06T01:50:01.033Z,1023.14
2016-12-06T01:51:09.895Z,1023.16
2016-12-06T01:52:18.731Z,1023.13
2016-12-06T01:53:27.587Z,1023.11
2016-12-06T01:54:36.457Z,1023.12
2016-12-06T01:55:45.298Z,1023.13
2016-12-06T01:56:54.155Z,1023.11
2016-12-06T01:58:03.352Z,1023.15
2016-12-06T01:59:12.203Z,1023.19
2016-12-06T02:00:21.050Z,1023.17
2016-12-06T02:01:29.919Z,1023.2
2016-12-06T02:02:38.770Z,1023.17
2016-12-06T02:03:47.610Z,1023.23
2016-12-06T02:04:56.775Z,1023.19
2016-12-06T02:06:05.631Z,1023.22
2016-12-06T02:07:14.505Z,1023.21
2016-12-06T02:08:23.336Z,1023.19
2016-12-06T02:09:32.191Z,1023.28
2016-12-06T02:10:41.050Z,1023.23
2016-12-06T02:11:49.897Z,1023.16
2016-12-06T02:12:58.738Z,1023.12
2016-12-06T02:14:07.598Z,1023.09
2016-12-06T02:15:16.452Z,1023.07
2016-12-06T02:16:25.316Z,1023.04
2016-12-06T02:17:34.210Z,1023.08
2016-12-06T02:18:43.075Z,1023.06
2016-12-06T02:19:51.906Z,1023.04
2016-12-06T02:21:00.771Z,1023.06
2016-12-06T02:22:09.629Z,1023.04
2016-12-06T02:23:18.474Z,1023.05
2016-12-06T02:24:27.321Z,1023.1
2016-12-06T02:25:36.182Z,1023.17
2016-12-06T02:26:45.013Z,1023.13
2016-12-06T02:27:53.861Z,1023.08
2016-12-06T02:29:02.722Z,1023.11
2016-12-06T02:30:11.567Z,1023.15
2016-12-06T02:31:20.405Z,1023.17
2016-12-06T02:32:29.280Z,1023.22
2016-12-06T02:33:38.136Z,1023.25
2016-12-06T02:34:46.991Z,1023.29
2016-12-06T02:35:55.837Z,1023.22
2016-12-06T02:37:04.691Z,1023.27
2016-12-06T02:38:13.547Z,1023.3
2016-12-06T02:39:22.402Z,1023.22
2016-12-06T02:40:31.244Z,1023.22
2016-12-06T02:41:40.116Z,1023.24
2016-12-06T02:42:48.999Z,1023.16
2016-12-06T02:43:57.844Z,1023.14
2016-12-06T02:45:06.706Z,1023.13
2016-12-06T02:46:15.567Z,1023.12
2016-12-06T02:47:24.398Z,1023.12
2016-12-06T02:48:33.248Z,1023.18
2016-12-06T02:49:42.102Z,1023.2
2016-12-06T02:50:50.971Z,1023.22
2016-12-06T02:51:59.826Z,1023.26
2016-12-06T02:53:08.673Z,1023.29
2016-12-06T02:54:17.524Z,1023.36
2016-12-06T02:55:26.383Z,1023.35
2016-12-06T02:56:35.225Z,1023.3
2016-12-06T02:57:44.076Z,1023.31
2016-12-06T02:58:52.943Z,1023.22
2016-12-06T03:00:01.811Z,1023.23
2016-12-06T03:01:10.664Z,1023.27
2016-12-06T03:02:19.539Z,1023.25
2016-12-06T03:03:28.367Z,1023.25
2016-12-06T03:04:37.228Z,1023.31
2016-12-06T03:05:46.070Z,1023.26
2016-12-06T03:06:54.925Z,1023.28
2016-12-06T03:08:03.793Z,1023.25
2016-12-06T03:09:12.663Z,1023.33
2016-12-06T03:10:21.503Z,1023.34
2016-12-06T03:11:30.365Z,1023.41
2016-12-06T03:12:39.211Z,1023.4
2016-12-06T03:13:48.055Z,1023.4
2016-12-06T03:14:56.926Z,1023.43
2016-12-06T03:16:05.768Z,1023.42
2016-12-06T03:17:14.594Z,1023.42
2016-12-06T03:18:23.487Z,1023.44
2016-12-06T03:19:32.328Z,1023.37
2016-12-06T03:20:41.196Z,1023.36
2016-12-06T03:21:50.037Z,1023.32
2016-12-06T03:22:58.884Z,1023.3
2016-12-06T03:24:07.756Z,1023.32
2016-12-06T03:25:16.600Z,1023.31
2016-12-06T03:26:25.448Z,1023.31
2016-12-06T03:27:34.313Z,1023.31
2016-12-06T03:28:43.159Z,1023.35
2016-12-06T03:29:52.006Z,1023.33
2016-12-06T03:31:01.189Z,1023.3
2016-12-06T03:32:10.050Z,1023.3
2016-12-06T03:33:18.897Z,1023.26
2016-12-06T03:34:27.756Z,1023.26
2016-12-06T03:35:36.587Z,1023.22
2016-12-06T03:36:45.465Z,1023.18
2016-12-06T03:37:54.318Z,1023.17
2016-12-06T03:39:03.164Z,1023.13
2016-12-06T03:40:12.022Z,1023.11
2016-12-06T03:41:20.877Z,1023.1
2016-12-06T03:42:29.713Z,1023.08
2016-12-06T03:43:38.555Z,1023.08
2016-12-06T03:44:47.421Z,1023.07
2016-12-06T03:45:56.281Z,1023.04
2016-12-06T03:47:05.134Z,1023.05
2016-12-06T03:48:13.974Z,1023.04
2016-12-06T03:49:22.837Z,1023.06
2016-12-06T03:50:31.694Z,1023.09
2016-12-06T03:51:40.532Z,1023.16
2016-12-06T03:52:49.383Z,1023.13
2016-12-06T03:53:58.245Z,1023.2
2016-12-06T03:55:07.087Z,1023.18
2016-12-06T03:56:15.942Z,1023.16
2016-12-06T03:57:24.835Z,1023.16
2016-12-06T03:58:33.671Z,1023.22
2016-12-06T03:59:42.520Z,1023.29
2016-12-06T04:00:51.372Z,1023.28
2016-12-06T04:02:00.223Z,1023.29
2016-12-06T04:03:09.091Z,1023.29
2016-12-06T04:04:17.919Z,1023.37
2016-12-06T04:05:26.771Z,1023.32
2016-12-06T04:06:35.638Z,1023.3
2016-12-06T04:07:44.482Z,1023.32
2016-12-06T04:08:53.335Z,1023.3
2016-12-06T04:10:02.233Z,1023.28
2016-12-06T04:11:11.404Z,1023.28
2016-12-06T04:12:20.239Z,1023.25
2016-12-06T04:13:29.090Z,1023.3
2016-12-06T04:14:37.948Z,1023.31
2016-12-06T04:15:46.793Z,1023.35
2016-12-06T04:16:55.652Z,1023.35
2016-12-06T04:18:04.555Z,1023.43
2016-12-06T04:19:13.388Z,1023.4
2016-12-06T04:20:22.244Z,1023.39
2016-12-06T04:21:31.109Z,1023.33
2016-12-06T04:22:39.952Z,1023.27
2016-12-06T04:23:48.809Z,1023.26
2016-12-06T04:24:57.676Z,1023.28
2016-12-06T04:26:06.514Z,1023.31
2016-12-06T04:27:15.359Z,1023.23
2016-12-06T04:28:24.226Z,1023.27
2016-12-06T04:29:33.088Z,1023.32
2016-12-06T04:30:41.926Z,1023.35
2016-12-06T04:31:50.791Z,1023.45
2016-12-06T04:32:59.632Z,1023.46
2016-12-06T04:34:08.513Z,1023.44
2016-12-06T04:35:17.358Z,1023.41
2016-12-06T04:36:26.239Z,1023.45
2016-12-06T04:37:35.108Z,1023.51
2016-12-06T04:38:43.948Z,1023.48
2016-12-06T04:39:52.790Z,1023.47
2016-12-06T04:41:01.660Z,1023.45
2016-12-06T04:42:10.523Z,1023.44
2016-12-06T04:43:19.359Z,1023.4
2016-12-06T04:44:28.215Z,1023.49
2016-12-06T04:45:37.063Z,1023.55
2016-12-06T04:46:45.929Z,1023.57
2016-12-06T04:47:54.774Z,1023.52
2016-12-06T04:49:03.607Z,1023.59
2016-12-06T04:50:12.485Z,1023.58
2016-12-06T04:51:21.339Z,1023.59
2016-12-06T04:52:30.184Z,1023.6
2016-12-06T04:53:39.064Z,1023.56
2016-12-06T04:54:47.929Z,1023.56
2016-12-06T04:55:56.758Z,1023.59
2016-12-06T04:57:05.615Z,1023.55
2016-12-06T04:58:14.479Z,1023.51
2016-12-06T04:59:23.313Z,1023.54
2016-12-06T05:00:32.166Z,1023.55
2016-12-06T05:01:41.020Z,1023.53
2016-12-06T05:02:49.901Z,1023.56
2016-12-06T05:03:58.767Z,1023.62
2016-12-06T05:05:07.609Z,1023.61
2016-12-06T05:06:16.460Z,1023.64
2016-12-06T05:07:25.324Z,1023.63
2016-12-06T05:08:34.485Z,1023.6
2016-12-06T05:09:43.341Z,1023.61
2016-12-06T05:10:52.217Z,1023.6
2016-12-06T05:12:01.056Z,1023.62
2016-12-06T05:13:09.904Z,1023.56
2016-12-06T05:14:18.768Z,1023.52
2016-12-06T05:15:27.623Z,1023.48
2016-12-06T05:16:36.490Z,1023.46
2016-12-06T05:17:45.318Z,1023.37
2016-12-06T05:18:54.164Z,1023.4
2016-12-06T05:20:03.044Z,1023.41
2016-12-06T05:21:11.892Z,1023.52
2016-12-06T05:22:20.741Z,1023.57
2016-12-06T05:23:29.609Z,1023.61
2016-12-06T05:24:38.471Z,1023.62
2016-12-06T05:25:47.302Z,1023.63
2016-12-06T05:26:56.178Z,1023.64
2016-12-06T05:28:05.022Z,1023.66
2016-12-06T05:29:13.871Z,1023.63
2016-12-06T05:30:22.736Z,1023.63
2016-12-06T05:31:31.588Z,1023.61
2016-12-06T05:32:40.464Z,1023.62
2016-12-06T05:33:49.636Z,1023.63
2016-12-06T05:34:58.472Z,1023.63
2016-12-06T05:36:07.339Z,1023.61
2016-12-06T05:37:16.198Z,1023.61
2016-12-06T05:38:25.041Z,1023.63
2016-12-06T05:39:33.903Z,1023.67
2016-12-06T05:40:42.775Z,1023.65
2016-12-06T05:41:51.611Z,1023.71
2016-12-06T05:43:00.471Z,1023.75
2016-12-06T05:44:09.333Z,1023.78
2016-12-06T05:45:18.192Z,1023.78
2016-12-06T05:46:27.054Z,1023.82
2016-12-06T05:47:35.888Z,1023.87
2016-12-06T05:48:44.746Z,1023.87
2016-12-06T05:49:53.647Z,1023.87
2016-12-06T05:51:02.488Z,1023.87
2016-12-06T05:52:11.334Z,1023.86
2016-12-06T05:53:20.205Z,1023.92
2016-12-06T05:54:29.039Z,1023.98
2016-12-06T05:55:37.889Z,1024.01
2016-12-06T05:56:47.095Z,1024.01
2016-12-06T05:57:55.943Z,1024.05
2016-12-06T05:59:04.796Z,1024.07
2016-12-06T06:00:13.648Z,1024.07
2016-12-06T06:01:22.537Z,1024.11
2016-12-06T06:02:31.407Z,1024.17
2016-12-06T06:03:40.265Z,1024.18
2016-12-06T06:04:49.118Z,1024.31
2016-12-06T06:05:57.985Z,1024.24
2016-12-06T06:07:06.839Z,1024.19
2016-12-06T06:08:15.681Z,1024.21
2016-12-06T06:09:24.556Z,1024.21
2016-12-06T06:10:33.400Z,1024.19
2016-12-06T06:11:42.254Z,1024.15
2016-12-06T06:12:51.125Z,1024.24
2016-12-06T06:13:59.983Z,1024.25
2016-12-06T06:15:08.826Z,1024.2
2016-12-06T06:16:17.692Z,1024.24
2016-12-06T06:17:26.552Z,1024.21
2016-12-06T06:18:35.391Z,1024.21
2016-12-06T06:19:44.253Z,1024.23
2016-12-06T06:20:53.123Z,1024.23
2016-12-06T06:22:01.963Z,1024.32
2016-12-06T06:23:10.803Z,1024.3
2016-12-06T06:24:19.682Z,1024.37
2016-12-06T06:25:28.527Z,1024.35
2016-12-06T06:26:37.378Z,1024.36
2016-12-06T06:27:46.235Z,1024.36
2016-12-06T06:28:55.080Z,1024.34
2016-12-06T06:30:03.944Z,1024.32
2016-12-06T06:31:12.792Z,1024.27
2016-12-06T06:32:21.646Z,1024.28
2016-12-06T06:33:30.514Z,1024.26
2016-12-06T06:34:39.380Z,1024.29
2016-12-06T06:35:48.222Z,1024.28
2016-12-06T06:36:57.120Z,1024.29
2016-12-06T06:38:05.968Z,1024.32
2016-12-06T06:39:14.799Z,1024.32
2016-12-06T06:40:23.675Z,1024.32
2016-12-06T06:41:32.530Z,1024.36
2016-12-06T06:42:41.384Z,1024.4
2016-12-06T06:43:50.244Z,1024.42
2016-12-06T06:44:59.094Z,1024.45
2016-12-06T06:46:07.977Z,1024.5
2016-12-06T06:47:16.830Z,1024.46
2016-12-06T06:48:25.667Z,1024.47
2016-12-06T06:49:34.573Z,1024.43
2016-12-06T06:50:43.439Z,1024.43
2016-12-06T06:51:52.279Z,1024.43
2016-12-06T06:53:01.157Z,1024.43
2016-12-06T06:54:10.030Z,1024.46
2016-12-06T06:55:18.872Z,1024.46
2016-12-06T06:56:27.736Z,1024.5
2016-12-06T06:57:36.597Z,1024.48
2016-12-06T06:58:45.475Z,1024.46
2016-12-06T06:59:54.325Z,1024.47
2016-12-06T07:01:03.163Z,1024.42
2016-12-06T07:02:12.039Z,1024.46
2016-12-06T07:03:20.902Z,1024.49
2016-12-06T07:04:29.755Z,1024.51
2016-12-06T07:05:38.608Z,1024.5
2016-12-06T07:06:47.481Z,1024.55
2016-12-06T07:07:56.315Z,1024.58
2016-12-06T07:09:05.173Z,1024.59
2016-12-06T07:10:14.035Z,1024.57
2016-12-06T07:11:22.897Z,1024.59
2016-12-06T07:12:31.756Z,1024.57
2016-12-06T07:13:40.609Z,1024.65
2016-12-06T07:14:49.471Z,1024.67
2016-12-06T07:15:58.335Z,1024.67
2016-12-06T07:17:07.181Z,1024.67
2016-12-06T07:18:16.033Z,1024.68
2016-12-06T07:19:24.910Z,1024.72
2016-12-06T07:20:33.755Z,1024.73
2016-12-06T07:21:42.615Z,1024.68
2016-12-06T07:22:51.796Z,1024.72
2016-12-06T07:24:00.639Z,1024.72
2016-12-06T07:25:09.472Z,1024.77
2016-12-06T07:26:18.343Z,1024.72
2016-12-06T07:27:27.222Z,1024.76
2016-12-06T07:28:36.081Z,1024.8
2016-12-06T07:29:44.928Z,1024.86
2016-12-06T07:30:53.771Z,1024.98
2016-12-06T07:32:02.642Z,1024.97
2016-12-06T07:33:11.491Z,1024.92
2016-12-06T07:34:20.319Z,1024.95
2016-12-06T07:35:29.186Z,1024.92
2016-12-06T07:36:38.040Z,1024.96
2016-12-06T07:37:46.887Z,1024.95
2016-12-06T07:38:55.758Z,1024.94
2016-12-06T07:40:04.626Z,1024.95
2016-12-06T07:41:13.467Z,1024.93
2016-12-06T07:42:22.330Z,1024.97
2016-12-06T07:43:31.182Z,1024.96
2016-12-06T07:44:40.040Z,1024.99
2016-12-06T07:45:48.892Z,1025.05
2016-12-06T07:46:57.729Z,1025.1
2016-12-06T07:48:06.605Z,1025.04
2016-12-06T07:49:15.482Z,1025.09
2016-12-06T07:50:24.329Z,1025.08
2016-12-06T07:51:33.179Z,1025.1
2016-12-06T07:52:42.064Z,1025.11
2016-12-06T07:53:50.909Z,1025.13
2016-12-06T07:54:59.761Z,1025.16
2016-12-06T07:56:08.627Z,1025.21
2016-12-06T07:57:17.480Z,1025.24
2016-12-06T07:58:26.350Z,1025.22
2016-12-06T07:59:35.199Z,1025.22
2016-12-06T08:00:44.055Z,1025.22
2016-12-06T08:01:52.929Z,1025.21
2016-12-06T08:03:01.762Z,1025.2
2016-12-06T08:04:10.616Z,1025.23
2016-12-06T08:05:19.494Z,1025.28
2016-12-06T08:06:28.340Z,1025.27
2016-12-06T08:07:37.186Z,1025.3
2016-12-06T08:08:46.044Z,1025.31
2016-12-06T08:09:54.885Z,1025.27
2016-12-06T08:11:03.727Z,1025.3
2016-12-06T08:12:12.597Z,1025.32
2016-12-06T08:13:21.471Z,1025.31
2016-12-06T08:14:30.314Z,1025.36
2016-12-06T08:15:39.186Z,1025.43
2016-12-06T08:16:48.050Z,1025.42
2016-12-06T08:17:56.887Z,1025.46
2016-12-06T08:19:05.732Z,1025.49
2016-12-06T08:20:14.627Z,1025.51
2016-12-06T08:21:23.468Z,1025.57
2016-12-06T08:22:32.331Z,1025.59
2016-12-06T08:23:41.198Z,1025.55
2016-12-06T08:24:50.044Z,1025.59
2016-12-06T08:25:58.872Z,1025.58
2016-12-06T08:27:07.735Z,1025.61
2016-12-06T08:28:16.596Z,1025.62
2016-12-06T08:29:25.456Z,1025.67
2016-12-06T08:30:34.299Z,1025.68
2016-12-06T08:31:43.144Z,1025.69
2016-12-06T08:32:52.012Z,1025.72
2016-12-06T08:34:00.853Z,1025.75
2016-12-06T08:35:09.694Z,1025.73
2016-12-06T08:36:18.569Z,1025.76
2016-12-06T08:37:27.419Z,1025.77
2016-12-06T08:38:36.249Z,1025.78
2016-12-06T08:39:45.126Z,1025.79
2016-12-06T08:40:53.976Z,1025.8
2016-12-06T08:42:02.828Z,1025.77
2016-12-06T08:43:11.672Z,1025.81
2016-12-06T08:44:20.577Z,1025.82
2016-12-06T08:45:29.450Z,1025.86
2016-12-06T08:46:38.304Z,1025.85
2016-12-06T08:47:47.159Z,1025.88
2016-12-06T08:48:56.032Z,1025.91
2016-12-06T08:50:04.889Z,1025.91
2016-12-06T08:51:13.732Z,1025.93
2016-12-06T08:52:22.601Z,1025.92
2016-12-06T08:53:31.468Z,1025.93
2016-12-06T08:54:40.309Z,1025.93
2016-12-06T08:55:49.164Z,1025.97
2016-12-06T08:56:58.023Z,1025.99
2016-12-06T08:58:07.202Z,1026
2016-12-06T08:59:16.063Z,1026.07
2016-12-06T09:00:24.898Z,1026.09
2016-12-06T09:01:33.779Z,1026.13
2016-12-06T09:02:42.675Z,1026.06
2016-12-06T09:03:51.515Z,1026.04
2016-12-06T09:05:00.370Z,1026.03
2016-12-06T09:06:09.246Z,1026.08
2016-12-06T09:07:18.086Z,1026.09
2016-12-06T09:08:26.947Z,1026.08
2016-12-06T09:09:35.843Z,1026.12
2016-12-06T09:10:44.682Z,1026.1
2016-12-06T09:11:53.542Z,1026.13
2016-12-06T09:13:02.408Z,1026.15
2016-12-06T09:14:11.267Z,1026.15
2016-12-06T09:15:20.094Z,1026.17
2016-12-06T09:16:28.972Z,1026.22
2016-12-06T09:17:37.831Z,1026.21
2016-12-06T09:18:46.672Z,1026.18
2016-12-06T09:19:55.530Z,1026.19
2016-12-06T09:21:04.407Z,1026.22
2016-12-06T09:22:13.256Z,1026.24
2016-12-06T09:23:22.123Z,1026.26
2016-12-06T09:24:31.000Z,1026.27
2016-12-06T09:25:39.834Z,1026.26
2016-12-06T09:26:48.695Z,1026.24
2016-12-06T09:27:57.541Z,1026.29
2016-12-06T09:29:06.404Z,1026.31
2016-12-06T09:30:15.272Z,1026.31
2016-12-06T09:31:24.107Z,1026.34
2016-12-06T09:32:32.964Z,1026.37
2016-12-06T09:33:41.823Z,1026.4
2016-12-06T09:34:50.669Z,1026.37
2016-12-06T09:35:59.539Z,1026.39
2016-12-06T09:37:08.410Z,1026.39
2016-12-06T09:38:17.261Z,1026.35
2016-12-06T09:39:26.099Z,1026.37
2016-12-06T09:40:34.963Z,1026.33
2016-12-06T09:41:43.835Z,1026.32
2016-12-06T09:42:52.701Z,1026.34
2016-12-06T09:44:01.544Z,1026.37
2016-12-06T09:45:10.395Z,1026.37
2016-12-06T09:46:19.295Z,1026.44
2016-12-06T09:47:28.132Z,1026.38
2016-12-06T09:48:36.974Z,1026.34
2016-12-06T09:49:45.840Z,1026.36
2016-12-06T09:50:54.730Z,1026.36
2016-12-06T09:52:03.606Z,1026.34
2016-12-06T09:53:12.473Z,1026.35
2016-12-06T09:54:21.359Z,1026.37
2016-12-06T09:55:30.224Z,1026.42
2016-12-06T09:56:39.070Z,1026.42
2016-12-06T09:57:47.926Z,1026.41
2016-12-06T09:58:56.813Z,1026.41
2016-12-06T10:00:05.671Z,1026.43
2016-12-06T10:01:14.500Z,1026.41
2016-12-06T10:02:23.375Z,1026.37
2016-12-06T10:03:32.228Z,1026.38
2016-12-06T10:04:41.067Z,1026.38
2016-12-06T10:05:49.928Z,1026.4
2016-12-06T10:06:58.777Z,1026.35
2016-12-06T10:08:07.628Z,1026.37
2016-12-06T10:09:16.484Z,1026.41
2016-12-06T10:10:25.382Z,1026.41
2016-12-06T10:11:34.549Z,1026.47
2016-12-06T10:12:43.392Z,1026.46
2016-12-06T10:13:52.274Z,1026.46
2016-12-06T10:15:01.113Z,1026.49
2016-12-06T10:16:09.967Z,1026.47
2016-12-06T10:17:18.847Z,1026.47
2016-12-06T10:18:27.708Z,1026.48
2016-12-06T10:19:36.550Z,1026.49
2016-12-06T10:20:45.444Z,1026.49
2016-12-06T10:21:54.301Z,1026.52
2016-12-06T10:23:03.138Z,1026.48
2016-12-06T10:24:12.000Z,1026.5
2016-12-06T10:25:20.859Z,1026.53
2016-12-06T10:26:29.724Z,1026.51
2016-12-06T10:27:38.577Z,1026.54
2016-12-06T10:28:47.735Z,1026.55
2016-12-06T10:29:56.616Z,1026.58
2016-12-06T10:31:05.499Z,1026.58
2016-12-06T10:32:14.395Z,1026.56
2016-12-06T10:33:23.264Z,1026.54
2016-12-06T10:34:32.124Z,1026.57
2016-12-06T10:35:40.971Z,1026.6
2016-12-06T10:36:49.831Z,1026.61
2016-12-06T10:37:58.705Z,1026.57
2016-12-06T10:39:07.541Z,1026.58
2016-12-06T10:40:16.418Z,1026.61
2016-12-06T10:41:25.267Z,1026.63
2016-12-06T10:42:34.124Z,1026.69
2016-12-06T10:43:43.032Z,1026.65
2016-12-06T10:44:51.874Z,1026.69
2016-12-06T10:46:00.723Z,1026.7
2016-12-06T10:47:09.592Z,1026.72
2016-12-06T10:48:18.439Z,1026.7
2016-12-06T10:49:27.296Z,1026.72
2016-12-06T10:50:36.179Z,1026.72
2016-12-06T10:51:45.025Z,1026.75
2016-12-06T10:52:54.204Z,1026.7
2016-12-06T10:54:03.073Z,1026.69
2016-12-06T10:55:11.936Z,1026.72
2016-12-06T10:56:20.797Z,1026.72
2016-12-06T10:57:29.641Z,1026.75
2016-12-06T10:58:38.479Z,1026.77
2016-12-06T10:59:47.358Z,1026.74
2016-12-06T11:00:56.516Z,1026.76
2016-12-06T11:02:05.369Z,1026.69
2016-12-06T11:03:14.245Z,1026.69
2016-12-06T11:04:23.098Z,1026.71
2016-12-06T11:05:31.940Z,1026.73
2016-12-06T11:06:40.810Z,1026.74
2016-12-06T11:07:49.702Z,1026.74
2016-12-06T11:08:58.882Z,1026.77
2016-12-06T11:10:07.726Z,1026.77
2016-12-06T11:11:16.573Z,1026.72
2016-12-06T11:12:25.450Z,1026.73
2016-12-06T11:13:34.294Z,1026.81
2016-12-06T11:14:43.135Z,1026.8
2016-12-06T11:15:51.994Z,1026.74
2016-12-06T11:17:00.851Z,1026.82
2016-12-06T11:18:09.687Z,1026.82
2016-12-06T11:19:18.558Z,1026.77
2016-12-06T11:20:27.430Z,1026.81
2016-12-06T11:21:36.280Z,1026.82
2016-12-06T11:22:45.125Z,1026.81
2016-12-06T11:23:53.957Z,1026.82
2016-12-06T11:25:02.814Z,1026.84
2016-12-06T11:26:11.672Z,1026.85
2016-12-06T11:27:20.504Z,1026.86
2016-12-06T11:28:29.369Z,1026.89
2016-12-06T11:29:38.225Z,1026.92
2016-12-06T11:30:47.047Z,1026.93
2016-12-06T11:31:55.898Z,1026.89
2016-12-06T11:33:04.761Z,1026.86
2016-12-06T11:34:13.609Z,1026.84
2016-12-06T11:35:22.460Z,1026.8
2016-12-06T11:36:31.316Z,1026.81
2016-12-06T11:37:40.166Z,1026.85
2016-12-06T11:38:49.032Z,1026.86
2016-12-06T11:39:57.887Z,1026.87
2016-12-06T11:41:06.733Z,1026.9
2016-12-06T11:42:15.595Z,1026.95
2016-12-06T11:43:24.423Z,1026.91
2016-12-06T11:44:33.263Z,1026.89
2016-12-06T11:45:42.158Z,1026.9
2016-12-06T11:46:51.009Z,1026.88
2016-12-06T11:47:59.840Z,1026.91
2016-12-06T11:49:08.714Z,1026.91
2016-12-06T11:50:17.556Z,1026.93
2016-12-06T11:51:26.400Z,1026.98
2016-12-06T11:52:35.259Z,1026.97
2016-12-06T11:53:44.087Z,1027.02
2016-12-06T11:54:52.961Z,1027.01
2016-12-06T11:56:01.798Z,1026.97
2016-12-06T11:57:10.636Z,1026.98
2016-12-06T11:58:19.506Z,1026.96
2016-12-06T11:59:28.359Z,1026.95
2016-12-06T12:00:37.191Z,1026.95
2016-12-06T12:01:46.059Z,1026.99
2016-12-06T12:02:54.927Z,1027.04
2016-12-06T12:04:03.750Z,1027.03
2016-12-06T12:05:12.617Z,1027.06
2016-12-06T12:06:21.472Z,1027.1
2016-12-06T12:07:30.309Z,1027.07
2016-12-06T12:08:39.167Z,1027.09
2016-12-06T12:09:48.033Z,1027.05
2016-12-06T12:10:56.867Z,1027.02
2016-12-06T12:12:05.705Z,1026.97
2016-12-06T12:13:14.564Z,1026.96
2016-12-06T12:14:23.417Z,1026.95
2016-12-06T12:15:32.253Z,1026.94
2016-12-06T12:16:41.129Z,1026.95
2016-12-06T12:17:49.986Z,1026.92
2016-12-06T12:18:59.151Z,1026.92
2016-12-06T12:20:08.008Z,1026.9
2016-12-06T12:21:16.857Z,1026.95
2016-12-06T12:22:25.708Z,1026.96
2016-12-06T12:23:34.546Z,1027.01
2016-12-06T12:24:43.391Z,1027
2016-12-06T12:25:52.257Z,1027.07
2016-12-06T12:27:01.112Z,1027.08
2016-12-06T12:28:09.953Z,1027.08
2016-12-06T12:29:18.829Z,1027.07
2016-12-06T12:30:27.685Z,1027.05
2016-12-06T12:31:36.515Z,1027.02
2016-12-06T12:32:45.378Z,1027.02
2016-12-06T12:33:54.244Z,1027.02
2016-12-06T12:35:03.110Z,1027.02
2016-12-06T12:36:12.017Z,1027.07
2016-12-06T12:37:20.859Z,1027.12
2016-12-06T12:38:29.727Z,1027.12
2016-12-06T12:39:38.580Z,1027.1
2016-12-06T12:40:47.427Z,1027.16
2016-12-06T12:41:56.278Z,1027.13
2016-12-06T12:43:05.142Z,1027.16
2016-12-06T12:44:13.980Z,1027.18
2016-12-06T12:45:22.852Z,1027.14
2016-12-06T12:46:31.735Z,1027.13
2016-12-06T12:47:40.568Z,1027.13
2016-12-06T12:48:49.418Z,1027.13
2016-12-06T12:49:58.274Z,1027.13
2016-12-06T12:51:07.127Z,1027.15
2016-12-06T12:52:16.024Z,1027.14
2016-12-06T12:53:24.867Z,1027.13
2016-12-06T12:54:33.719Z,1027.19
2016-12-06T12:55:42.587Z,1027.19
2016-12-06T12:56:51.428Z,1027.18
2016-12-06T12:58:00.288Z,1027.19
2016-12-06T12:59:09.177Z,1027.19
2016-12-06T13:00:18.027Z,1027.19
2016-12-06T13:01:26.863Z,1027.2
2016-12-06T13:02:35.737Z,1027.27
2016-12-06T13:03:44.577Z,1027.28
2016-12-06T13:04:53.422Z,1027.34
2016-12-06T13:06:02.284Z,1027.31
2016-12-06T13:07:11.146Z,1027.36
2016-12-06T13:08:20.018Z,1027.32
2016-12-06T13:09:28.858Z,1027.33
2016-12-06T13:10:37.701Z,1027.34
2016-12-06T13:11:46.556Z,1027.34
2016-12-06T13:12:55.433Z,1027.35
2016-12-06T13:14:04.271Z,1027.3
2016-12-06T13:15:13.136Z,1027.3
2016-12-06T13:16:22.002Z,1027.29
2016-12-06T13:17:30.837Z,1027.31
2016-12-06T13:18:39.691Z,1027.33
2016-12-06T13:19:48.546Z,1027.37
2016-12-06T13:20:57.405Z,1027.3
2016-12-06T13:22:06.249Z,1027.39
2016-12-06T13:23:15.086Z,1027.36
2016-12-06T13:24:23.980Z,1027.34
2016-12-06T13:25:32.840Z,1027.4
2016-12-06T13:26:41.685Z,1027.41
2016-12-06T13:27:50.539Z,1027.41
2016-12-06T13:28:59.400Z,1027.45
2016-12-06T13:30:08.249Z,1027.42
2016-12-06T13:31:17.417Z,1027.4
2016-12-06T13:32:26.280Z,1027.42
2016-12-06T13:33:35.125Z,1027.41
2016-12-06T13:34:43.987Z,1027.37
2016-12-06T13:35:52.831Z,1027.35
2016-12-06T13:37:01.691Z,1027.38
2016-12-06T13:38:10.616Z,1027.4
2016-12-06T13:39:19.447Z,1027.4
2016-12-06T13:40:28.306Z,1027.37
2016-12-06T13:41:37.164Z,1027.43
2016-12-06T13:42:46.003Z,1027.43
2016-12-06T13:43:54.851Z,1027.44
2016-12-06T13:45:03.722Z,1027.44
2016-12-06T13:46:12.597Z,1027.47
2016-12-06T13:47:21.454Z,1027.5
2016-12-06T13:48:30.308Z,1027.5
2016-12-06T13:49:39.158Z,1027.49
2016-12-06T13:50:48.034Z,1027.45
2016-12-06T13:51:57.571Z,1027.48
2016-12-06T13:53:06.423Z,1027.53
2016-12-06T13:54:15.291Z,1027.49
2016-12-06T13:55:24.139Z,1027.49
2016-12-06T13:56:32.990Z,1027.54